sensor_id;sensor_type;location;lat;lon;timestamp;P1;durP1;ratioP1;P2;durP2;ratioP2
11537;SDS011;50159;49.426;11.182;2023-03-01T00:01:37;15.27;;;10.90;;
11537;SDS011;50159;49.426;11.182;2023-03-01T00:04:04;16.60;;;11.27;;
11537;SDS011;50159;49.426;11.182;2023-03-01T00:06:31;13.30;;;10.13;;
11537;SDS011;50159;49.426;11.182;2023-03-01T00:08:58;14.73;;;11.30;;
11537;SDS011;50159;49.426;11.182;2023-03-01T00:11:26;14.67;;;10.27;;
11537;SDS011;50159;49.426;11.182;2023-03-01T00:13:57;16.50;;;11.73;;
11537;SDS011;50159;49.426;11.182;2023-03-01T00:16:30;15.33;;;11.43;;
11537;SDS011;50159;49.426;11.182;2023-03-01T00:19:09;13.80;;;10.67;;
11537;SDS011;50159;49.426;11.182;2023-03-01T00:21:40;16.43;;;11.40;;
11537;SDS011;50159;49.426;11.182;2023-03-01T00:24:08;20.30;;;11.97;;
11537;SDS011;50159;49.426;11.182;2023-03-01T00:26:36;20.27;;;11.67;;
11537;SDS011;50159;49.426;11.182;2023-03-01T00:29:03;15.53;;;11.83;;
11537;SDS011;50159;49.426;11.182;2023-03-01T00:31:31;17.23;;;11.27;;
11537;SDS011;50159;49.426;11.182;2023-03-01T00:34:01;15.80;;;11.70;;
11537;SDS011;50159;49.426;11.182;2023-03-01T00:36:31;16.30;;;11.60;;
11537;SDS011;50159;49.426;11.182;2023-03-01T00:39:02;21.17;;;11.87;;
11537;SDS011;50159;49.426;11.182;2023-03-01T00:41:34;14.97;;;10.90;;
11537;SDS011;50159;49.426;11.182;2023-03-01T00:44:01;17.90;;;10.77;;
11537;SDS011;50159;49.426;11.182;2023-03-01T00:46:28;17.27;;;11.90;;
11537;SDS011;50159;49.426;11.182;2023-03-01T00:48:57;16.80;;;12.23;;
11537;SDS011;50159;49.426;11.182;2023-03-01T00:51:25;15.50;;;12.37;;
11537;SDS011;50159;49.426;11.182;2023-03-01T00:53:55;22.23;;;12.67;;
11537;SDS011;50159;49.426;11.182;2023-03-01T00:56:25;22.30;;;12.77;;
11537;SDS011;50159;49.426;11.182;2023-03-01T00:58:52;21.83;;;12.47;;
11537;SDS011;50159;49.426;11.182;2023-03-01T01:01:20;15.53;;;11.57;;
11537;SDS011;50159;49.426;11.182;2023-03-01T01:03:52;16.30;;;11.63;;
11537;SDS011;50159;49.426;11.182;2023-03-01T01:06:29;15.57;;;11.77;;
11537;SDS011;50159;49.426;11.182;2023-03-01T01:08:59;16.70;;;12.03;;
11537;SDS011;50159;49.426;11.182;2023-03-01T01:11:28;19.17;;;11.90;;
11537;SDS011;50159;49.426;11.182;2023-03-01T01:13:56;14.93;;;11.30;;
11537;SDS011;50159;49.426;11.182;2023-03-01T01:16:25;14.37;;;11.13;;
11537;SDS011;50159;49.426;11.182;2023-03-01T01:18:55;20.17;;;11.50;;
11537;SDS011;50159;49.426;11.182;2023-03-01T01:21:23;16.97;;;10.90;;
11537;SDS011;50159;49.426;11.182;2023-03-01T01:23:51;19.77;;;11.70;;
11537;SDS011;50159;49.426;11.182;2023-03-01T01:26:21;16.33;;;11.37;;
11537;SDS011;50159;49.426;11.182;2023-03-01T01:28:51;17.87;;;11.83;;
11537;SDS011;50159;49.426;11.182;2023-03-01T01:31:19;19.27;;;11.60;;
11537;SDS011;50159;49.426;11.182;2023-03-01T01:33:50;20.07;;;11.70;;
11537;SDS011;50159;49.426;11.182;2023-03-01T01:36:18;16.50;;;11.60;;
11537;SDS011;50159;49.426;11.182;2023-03-01T01:38:45;18.63;;;11.53;;
11537;SDS011;50159;49.426;11.182;2023-03-01T01:41:12;16.23;;;11.23;;
11537;SDS011;50159;49.426;11.182;2023-03-01T01:43:44;18.83;;;11.90;;
11537;SDS011;50159;49.426;11.182;2023-03-01T01:46:50;14.47;;;11.50;;
11537;SDS011;50159;49.426;11.182;2023-03-01T01:49:38;16.00;;;11.93;;
11537;SDS011;50159;49.426;11.182;2023-03-01T01:52:20;17.53;;;12.10;;
11537;SDS011;50159;49.426;11.182;2023-03-01T01:55:00;17.77;;;11.73;;
11537;SDS011;50159;49.426;11.182;2023-03-01T01:57:32;19.00;;;12.30;;
11537;SDS011;50159;49.426;11.182;2023-03-01T02:00:08;17.67;;;11.63;;
11537;SDS011;50159;49.426;11.182;2023-03-01T02:02:42;18.30;;;11.90;;
11537;SDS011;50159;49.426;11.182;2023-03-01T02:07:52;16.03;;;11.07;;
11537;SDS011;50159;49.426;11.182;2023-03-01T02:10:21;17.90;;;11.17;;
11537;SDS011;50159;49.426;11.182;2023-03-01T02:12:50;16.53;;;11.43;;
11537;SDS011;50159;49.426;11.182;2023-03-01T02:15:18;18.83;;;11.70;;
11537;SDS011;50159;49.426;11.182;2023-03-01T02:17:45;18.37;;;11.67;;
11537;SDS011;50159;49.426;11.182;2023-03-01T02:22:59;17.80;;;12.00;;
11537;SDS011;50159;49.426;11.182;2023-03-01T02:25:40;20.43;;;13.63;;
11537;SDS011;50159;49.426;11.182;2023-03-01T02:28:22;17.10;;;11.40;;
11537;SDS011;50159;49.426;11.182;2023-03-01T02:31:00;17.33;;;12.17;;
11537;SDS011;50159;49.426;11.182;2023-03-01T02:33:49;16.70;;;11.73;;
11537;SDS011;50159;49.426;11.182;2023-03-01T02:36:20;20.10;;;13.43;;
11537;SDS011;50159;49.426;11.182;2023-03-01T02:38:57;18.57;;;11.90;;
11537;SDS011;50159;49.426;11.182;2023-03-01T02:41:28;16.60;;;11.83;;
11537;SDS011;50159;49.426;11.182;2023-03-01T02:44:03;18.37;;;11.27;;
11537;SDS011;50159;49.426;11.182;2023-03-01T02:46:31;20.43;;;11.93;;
11537;SDS011;50159;49.426;11.182;2023-03-01T02:48:58;20.90;;;12.20;;
11537;SDS011;50159;49.426;11.182;2023-03-01T02:56:59;19.00;;;12.53;;
11537;SDS011;50159;49.426;11.182;2023-03-01T02:59:29;16.10;;;11.00;;
11537;SDS011;50159;49.426;11.182;2023-03-01T03:02:06;15.20;;;11.97;;
11537;SDS011;50159;49.426;11.182;2023-03-01T03:04:46;17.57;;;11.93;;
11537;SDS011;50159;49.426;11.182;2023-03-01T03:07:13;20.37;;;12.33;;
11537;SDS011;50159;49.426;11.182;2023-03-01T03:09:40;17.27;;;11.57;;
11537;SDS011;50159;49.426;11.182;2023-03-01T03:12:06;17.10;;;12.60;;
11537;SDS011;50159;49.426;11.182;2023-03-01T03:14:33;20.63;;;13.17;;
11537;SDS011;50159;49.426;11.182;2023-03-01T03:17:01;17.10;;;11.70;;
11537;SDS011;50159;49.426;11.182;2023-03-01T03:19:32;18.60;;;12.00;;
11537;SDS011;50159;49.426;11.182;2023-03-01T03:21:59;19.90;;;11.67;;
11537;SDS011;50159;49.426;11.182;2023-03-01T03:24:25;14.57;;;10.93;;
11537;SDS011;50159;49.426;11.182;2023-03-01T03:26:54;16.90;;;11.03;;
11537;SDS011;50159;49.426;11.182;2023-03-01T03:29:21;15.97;;;11.70;;
11537;SDS011;50159;49.426;11.182;2023-03-01T03:31:48;15.80;;;10.57;;
11537;SDS011;50159;49.426;11.182;2023-03-01T03:34:15;16.30;;;10.30;;
11537;SDS011;50159;49.426;11.182;2023-03-01T03:36:44;18.67;;;11.20;;
11537;SDS011;50159;49.426;11.182;2023-03-01T03:39:10;20.13;;;11.43;;
11537;SDS011;50159;49.426;11.182;2023-03-01T03:41:37;16.47;;;11.40;;
11537;SDS011;50159;49.426;11.182;2023-03-01T03:44:04;15.83;;;11.00;;
11537;SDS011;50159;49.426;11.182;2023-03-01T03:46:31;16.10;;;11.10;;
11537;SDS011;50159;49.426;11.182;2023-03-01T03:48:59;16.33;;;10.83;;
11537;SDS011;50159;49.426;11.182;2023-03-01T03:51:25;15.87;;;10.80;;
11537;SDS011;50159;49.426;11.182;2023-03-01T03:53:52;15.53;;;10.70;;
11537;SDS011;50159;49.426;11.182;2023-03-01T03:56:19;17.23;;;11.27;;
11537;SDS011;50159;49.426;11.182;2023-03-01T03:58:46;14.43;;;10.27;;
11537;SDS011;50159;49.426;11.182;2023-03-01T04:01:12;16.23;;;10.50;;
11537;SDS011;50159;49.426;11.182;2023-03-01T04:03:39;17.60;;;11.97;;
11537;SDS011;50159;49.426;11.182;2023-03-01T04:06:07;15.83;;;11.30;;
11537;SDS011;50159;49.426;11.182;2023-03-01T04:08:34;20.13;;;11.30;;
11537;SDS011;50159;49.426;11.182;2023-03-01T04:11:02;17.80;;;11.27;;
11537;SDS011;50159;49.426;11.182;2023-03-01T04:13:51;16.93;;;11.47;;
11537;SDS011;50159;49.426;11.182;2023-03-01T04:16:20;15.13;;;11.00;;
11537;SDS011;50159;49.426;11.182;2023-03-01T04:18:48;17.80;;;10.90;;
11537;SDS011;50159;49.426;11.182;2023-03-01T04:21:15;17.47;;;10.47;;
11537;SDS011;50159;49.426;11.182;2023-03-01T04:23:42;18.83;;;11.07;;
11537;SDS011;50159;49.426;11.182;2023-03-01T04:26:09;16.60;;;10.93;;
11537;SDS011;50159;49.426;11.182;2023-03-01T04:28:37;17.03;;;11.27;;
11537;SDS011;50159;49.426;11.182;2023-03-01T04:31:10;15.80;;;11.07;;
11537;SDS011;50159;49.426;11.182;2023-03-01T04:36:25;16.10;;;11.40;;
11537;SDS011;50159;49.426;11.182;2023-03-01T04:38:54;16.03;;;10.93;;
11537;SDS011;50159;49.426;11.182;2023-03-01T04:41:22;19.70;;;12.17;;
11537;SDS011;50159;49.426;11.182;2023-03-01T04:43:51;16.23;;;11.83;;
11537;SDS011;50159;49.426;11.182;2023-03-01T04:46:19;17.23;;;11.33;;
11537;SDS011;50159;49.426;11.182;2023-03-01T04:48:46;19.73;;;12.53;;
11537;SDS011;50159;49.426;11.182;2023-03-01T04:51:14;24.10;;;11.63;;
11537;SDS011;50159;49.426;11.182;2023-03-01T04:53:42;15.53;;;11.37;;
11537;SDS011;50159;49.426;11.182;2023-03-01T04:56:09;17.87;;;11.87;;
11537;SDS011;50159;49.426;11.182;2023-03-01T04:58:36;15.43;;;11.47;;
11537;SDS011;50159;49.426;11.182;2023-03-01T05:01:13;21.17;;;13.23;;
11537;SDS011;50159;49.426;11.182;2023-03-01T05:03:44;18.07;;;11.80;;
11537;SDS011;50159;49.426;11.182;2023-03-01T05:06:15;19.03;;;11.63;;
11537;SDS011;50159;49.426;11.182;2023-03-01T05:08:43;20.07;;;11.77;;
11537;SDS011;50159;49.426;11.182;2023-03-01T05:11:11;16.43;;;11.57;;
11537;SDS011;50159;49.426;11.182;2023-03-01T05:13:39;16.73;;;11.67;;
11537;SDS011;50159;49.426;11.182;2023-03-01T05:16:06;15.67;;;11.00;;
11537;SDS011;50159;49.426;11.182;2023-03-01T05:18:38;21.13;;;12.17;;
11537;SDS011;50159;49.426;11.182;2023-03-01T05:21:07;15.63;;;11.33;;
11537;SDS011;50159;49.426;11.182;2023-03-01T05:23:37;16.83;;;11.27;;
11537;SDS011;50159;49.426;11.182;2023-03-01T05:26:05;16.87;;;11.37;;
11537;SDS011;50159;49.426;11.182;2023-03-01T05:28:47;19.97;;;12.87;;
11537;SDS011;50159;49.426;11.182;2023-03-01T05:31:14;19.60;;;12.37;;
11537;SDS011;50159;49.426;11.182;2023-03-01T05:33:41;17.73;;;11.97;;
11537;SDS011;50159;49.426;11.182;2023-03-01T05:36:09;16.53;;;11.93;;
11537;SDS011;50159;49.426;11.182;2023-03-01T05:38:36;18.47;;;11.80;;
11537;SDS011;50159;49.426;11.182;2023-03-01T05:41:03;20.17;;;13.60;;
11537;SDS011;50159;49.426;11.182;2023-03-01T05:43:30;21.00;;;12.87;;
11537;SDS011;50159;49.426;11.182;2023-03-01T05:46:00;19.13;;;12.67;;
11537;SDS011;50159;49.426;11.182;2023-03-01T05:48:27;15.27;;;11.90;;
11537;SDS011;50159;49.426;11.182;2023-03-01T05:50:54;15.57;;;11.13;;
11537;SDS011;50159;49.426;11.182;2023-03-01T05:53:21;19.73;;;11.50;;
11537;SDS011;50159;49.426;11.182;2023-03-01T05:55:48;16.73;;;11.90;;
11537;SDS011;50159;49.426;11.182;2023-03-01T05:58:16;19.37;;;12.37;;
11537;SDS011;50159;49.426;11.182;2023-03-01T06:00:46;18.07;;;11.80;;
11537;SDS011;50159;49.426;11.182;2023-03-01T06:03:15;19.07;;;12.03;;
11537;SDS011;50159;49.426;11.182;2023-03-01T06:05:43;17.30;;;11.73;;
11537;SDS011;50159;49.426;11.182;2023-03-01T06:08:11;20.60;;;11.97;;
11537;SDS011;50159;49.426;11.182;2023-03-01T06:10:39;22.17;;;12.53;;
11537;SDS011;50159;49.426;11.182;2023-03-01T06:13:06;19.20;;;12.67;;
11537;SDS011;50159;49.426;11.182;2023-03-01T06:15:33;20.03;;;12.20;;
11537;SDS011;50159;49.426;11.182;2023-03-01T06:18:00;18.87;;;12.70;;
11537;SDS011;50159;49.426;11.182;2023-03-01T06:20:28;20.77;;;13.47;;
11537;SDS011;50159;49.426;11.182;2023-03-01T06:22:55;19.57;;;13.87;;
11537;SDS011;50159;49.426;11.182;2023-03-01T06:25:23;21.17;;;11.83;;
11537;SDS011;50159;49.426;11.182;2023-03-01T06:27:52;22.27;;;13.47;;
11537;SDS011;50159;49.426;11.182;2023-03-01T06:30:20;26.53;;;14.83;;
11537;SDS011;50159;49.426;11.182;2023-03-01T06:32:50;18.83;;;12.50;;
11537;SDS011;50159;49.426;11.182;2023-03-01T06:35:18;19.37;;;12.37;;
11537;SDS011;50159;49.426;11.182;2023-03-01T06:37:46;21.47;;;13.20;;
11537;SDS011;50159;49.426;11.182;2023-03-01T06:40:14;19.70;;;13.37;;
11537;SDS011;50159;49.426;11.182;2023-03-01T06:42:42;19.47;;;12.00;;
11537;SDS011;50159;49.426;11.182;2023-03-01T06:45:17;23.33;;;13.27;;
11537;SDS011;50159;49.426;11.182;2023-03-01T06:47:46;21.53;;;13.33;;
11537;SDS011;50159;49.426;11.182;2023-03-01T06:50:14;21.63;;;13.73;;
11537;SDS011;50159;49.426;11.182;2023-03-01T06:52:43;19.37;;;13.67;;
11537;SDS011;50159;49.426;11.182;2023-03-01T06:55:11;19.13;;;13.20;;
11537;SDS011;50159;49.426;11.182;2023-03-01T06:57:39;23.10;;;13.07;;
11537;SDS011;50159;49.426;11.182;2023-03-01T07:00:06;19.57;;;12.80;;
11537;SDS011;50159;49.426;11.182;2023-03-01T07:02:34;19.83;;;12.17;;
11537;SDS011;50159;49.426;11.182;2023-03-01T07:05:01;21.17;;;13.70;;
11537;SDS011;50159;49.426;11.182;2023-03-01T07:07:28;22.67;;;13.97;;
11537;SDS011;50159;49.426;11.182;2023-03-01T07:09:54;17.67;;;12.27;;
11537;SDS011;50159;49.426;11.182;2023-03-01T07:12:21;20.87;;;13.47;;
11537;SDS011;50159;49.426;11.182;2023-03-01T07:14:49;21.60;;;13.90;;
11537;SDS011;50159;49.426;11.182;2023-03-01T07:17:16;20.77;;;13.00;;
11537;SDS011;50159;49.426;11.182;2023-03-01T07:19:43;19.57;;;12.43;;
11537;SDS011;50159;49.426;11.182;2023-03-01T07:22:11;19.43;;;12.27;;
11537;SDS011;50159;49.426;11.182;2023-03-01T07:24:37;18.27;;;11.53;;
11537;SDS011;50159;49.426;11.182;2023-03-01T07:27:04;18.20;;;12.03;;
11537;SDS011;50159;49.426;11.182;2023-03-01T07:29:31;19.00;;;12.47;;
11537;SDS011;50159;49.426;11.182;2023-03-01T07:31:58;20.90;;;13.17;;
11537;SDS011;50159;49.426;11.182;2023-03-01T07:34:25;21.43;;;13.23;;
11537;SDS011;50159;49.426;11.182;2023-03-01T07:36:51;18.97;;;12.30;;
11537;SDS011;50159;49.426;11.182;2023-03-01T07:39:18;23.13;;;13.13;;
11537;SDS011;50159;49.426;11.182;2023-03-01T07:41:45;24.20;;;13.87;;
11537;SDS011;50159;49.426;11.182;2023-03-01T07:44:12;19.77;;;13.83;;
11537;SDS011;50159;49.426;11.182;2023-03-01T07:46:39;19.03;;;13.00;;
11537;SDS011;50159;49.426;11.182;2023-03-01T07:49:06;24.17;;;13.50;;
11537;SDS011;50159;49.426;11.182;2023-03-01T07:51:32;18.90;;;12.77;;
11537;SDS011;50159;49.426;11.182;2023-03-01T07:53:59;19.00;;;13.00;;
11537;SDS011;50159;49.426;11.182;2023-03-01T07:56:26;26.23;;;13.33;;
11537;SDS011;50159;49.426;11.182;2023-03-01T07:58:53;22.73;;;14.13;;
11537;SDS011;50159;49.426;11.182;2023-03-01T08:01:20;19.20;;;12.93;;
11537;SDS011;50159;49.426;11.182;2023-03-01T08:03:48;21.03;;;13.07;;
11537;SDS011;50159;49.426;11.182;2023-03-01T08:06:15;21.50;;;13.90;;
11537;SDS011;50159;49.426;11.182;2023-03-01T08:08:43;18.47;;;13.17;;
11537;SDS011;50159;49.426;11.182;2023-03-01T08:11:11;23.57;;;13.50;;
11537;SDS011;50159;49.426;11.182;2023-03-01T08:13:41;18.67;;;12.70;;
11537;SDS011;50159;49.426;11.182;2023-03-01T08:16:13;22.60;;;13.53;;
11537;SDS011;50159;49.426;11.182;2023-03-01T08:18:42;22.23;;;13.10;;
11537;SDS011;50159;49.426;11.182;2023-03-01T08:21:10;15.40;;;12.17;;
11537;SDS011;50159;49.426;11.182;2023-03-01T08:23:40;23.47;;;14.50;;
11537;SDS011;50159;49.426;11.182;2023-03-01T08:26:12;25.13;;;13.00;;
11537;SDS011;50159;49.426;11.182;2023-03-01T08:28:44;23.00;;;13.40;;
11537;SDS011;50159;49.426;11.182;2023-03-01T08:34:13;19.73;;;14.00;;
11537;SDS011;50159;49.426;11.182;2023-03-01T08:36:43;18.93;;;13.93;;
11537;SDS011;50159;49.426;11.182;2023-03-01T08:39:14;22.77;;;13.50;;
11537;SDS011;50159;49.426;11.182;2023-03-01T08:41:42;26.20;;;14.50;;
11537;SDS011;50159;49.426;11.182;2023-03-01T08:44:13;21.63;;;13.97;;
11537;SDS011;50159;49.426;11.182;2023-03-01T08:46:43;22.13;;;13.87;;
11537;SDS011;50159;49.426;11.182;2023-03-01T08:49:15;22.17;;;14.03;;
11537;SDS011;50159;49.426;11.182;2023-03-01T08:51:44;20.57;;;13.43;;
11537;SDS011;50159;49.426;11.182;2023-03-01T08:54:13;20.40;;;13.20;;
11537;SDS011;50159;49.426;11.182;2023-03-01T08:56:44;17.77;;;12.43;;
11537;SDS011;50159;49.426;11.182;2023-03-01T08:59:11;18.30;;;13.03;;
11537;SDS011;50159;49.426;11.182;2023-03-01T09:01:40;23.93;;;14.87;;
11537;SDS011;50159;49.426;11.182;2023-03-01T09:04:14;20.00;;;13.40;;
11537;SDS011;50159;49.426;11.182;2023-03-01T09:06:42;17.60;;;13.93;;
11537;SDS011;50159;49.426;11.182;2023-03-01T09:09:15;16.93;;;11.47;;
11537;SDS011;50159;49.426;11.182;2023-03-01T09:11:44;18.83;;;14.00;;
11537;SDS011;50159;49.426;11.182;2023-03-01T09:14:12;20.53;;;14.13;;
11537;SDS011;50159;49.426;11.182;2023-03-01T09:16:43;29.90;;;13.87;;
11537;SDS011;50159;49.426;11.182;2023-03-01T09:19:10;17.53;;;12.70;;
11537;SDS011;50159;49.426;11.182;2023-03-01T09:21:37;21.00;;;12.57;;
11537;SDS011;50159;49.426;11.182;2023-03-01T09:24:12;19.70;;;13.40;;
11537;SDS011;50159;49.426;11.182;2023-03-01T09:26:41;21.53;;;13.70;;
11537;SDS011;50159;49.426;11.182;2023-03-01T09:29:08;18.10;;;12.43;;
11537;SDS011;50159;49.426;11.182;2023-03-01T09:31:35;20.93;;;12.33;;
11537;SDS011;50159;49.426;11.182;2023-03-01T09:34:02;25.73;;;13.37;;
11537;SDS011;50159;49.426;11.182;2023-03-01T09:36:30;18.40;;;11.73;;
11537;SDS011;50159;49.426;11.182;2023-03-01T09:38:57;18.07;;;12.47;;
11537;SDS011;50159;49.426;11.182;2023-03-01T09:41:42;16.83;;;12.90;;
11537;SDS011;50159;49.426;11.182;2023-03-01T09:44:25;16.13;;;11.73;;
11537;SDS011;50159;49.426;11.182;2023-03-01T09:47:04;18.03;;;12.47;;
11537;SDS011;50159;49.426;11.182;2023-03-01T09:49:39;17.50;;;13.23;;
11537;SDS011;50159;49.426;11.182;2023-03-01T09:55:15;16.77;;;12.23;;
11537;SDS011;50159;49.426;11.182;2023-03-01T09:57:53;25.87;;;12.63;;
11537;SDS011;50159;49.426;11.182;2023-03-01T10:00:36;17.43;;;12.60;;
11537;SDS011;50159;49.426;11.182;2023-03-01T10:06:26;18.80;;;12.80;;
11537;SDS011;50159;49.426;11.182;2023-03-01T10:09:02;15.77;;;12.27;;
11537;SDS011;50159;49.426;11.182;2023-03-01T10:11:39;16.27;;;12.57;;
11537;SDS011;50159;49.426;11.182;2023-03-01T10:16:57;18.30;;;13.23;;
11537;SDS011;50159;49.426;11.182;2023-03-01T10:22:03;17.33;;;12.57;;
11537;SDS011;50159;49.426;11.182;2023-03-01T10:24:41;17.77;;;13.40;;
11537;SDS011;50159;49.426;11.182;2023-03-01T10:32:57;20.50;;;12.30;;
11537;SDS011;50159;49.426;11.182;2023-03-01T10:35:26;15.33;;;11.77;;
11537;SDS011;50159;49.426;11.182;2023-03-01T10:40:32;19.93;;;12.70;;
11537;SDS011;50159;49.426;11.182;2023-03-01T10:43:15;20.93;;;13.50;;
11537;SDS011;50159;49.426;11.182;2023-03-01T10:45:42;17.17;;;12.20;;
11537;SDS011;50159;49.426;11.182;2023-03-01T10:48:13;18.50;;;13.17;;
11537;SDS011;50159;49.426;11.182;2023-03-01T10:51:12;19.67;;;12.90;;
11537;SDS011;50159;49.426;11.182;2023-03-01T10:53:48;17.23;;;11.60;;
11537;SDS011;50159;49.426;11.182;2023-03-01T10:56:17;19.23;;;13.37;;
11537;SDS011;50159;49.426;11.182;2023-03-01T10:58:57;20.30;;;13.20;;
11537;SDS011;50159;49.426;11.182;2023-03-01T11:01:36;17.90;;;13.03;;
11537;SDS011;50159;49.426;11.182;2023-03-01T11:06:33;17.07;;;11.73;;
11537;SDS011;50159;49.426;11.182;2023-03-01T11:09:13;18.43;;;12.43;;
11537;SDS011;50159;49.426;11.182;2023-03-01T11:11:52;21.47;;;13.53;;
11537;SDS011;50159;49.426;11.182;2023-03-01T11:14:22;17.40;;;12.30;;
11537;SDS011;50159;49.426;11.182;2023-03-01T11:22:55;17.07;;;11.37;;
11537;SDS011;50159;49.426;11.182;2023-03-01T11:25:31;16.47;;;12.33;;
11537;SDS011;50159;49.426;11.182;2023-03-01T11:28:04;16.50;;;11.43;;
11537;SDS011;50159;49.426;11.182;2023-03-01T11:30:38;17.07;;;12.30;;
11537;SDS011;50159;49.426;11.182;2023-03-01T11:36:35;14.37;;;10.93;;
11537;SDS011;50159;49.426;11.182;2023-03-01T11:39:17;14.17;;;10.03;;
11537;SDS011;50159;49.426;11.182;2023-03-01T11:42:13;17.87;;;11.53;;
11537;SDS011;50159;49.426;11.182;2023-03-01T11:44:48;15.33;;;10.77;;
11537;SDS011;50159;49.426;11.182;2023-03-01T11:47:29;15.40;;;11.00;;
11537;SDS011;50159;49.426;11.182;2023-03-01T11:50:17;15.67;;;11.30;;
11537;SDS011;50159;49.426;11.182;2023-03-01T11:53:16;18.33;;;11.87;;
11537;SDS011;50159;49.426;11.182;2023-03-01T11:56:05;16.20;;;10.80;;
11537;SDS011;50159;49.426;11.182;2023-03-01T12:04:36;17.73;;;11.57;;
11537;SDS011;50159;49.426;11.182;2023-03-01T12:07:40;17.17;;;11.70;;
11537;SDS011;50159;49.426;11.182;2023-03-01T12:10:37;15.80;;;11.53;;
11537;SDS011;50159;49.426;11.182;2023-03-01T12:16:09;14.03;;;11.43;;
11537;SDS011;50159;49.426;11.182;2023-03-01T12:39:42;12.67;;;10.60;;
11537;SDS011;50159;49.426;11.182;2023-03-01T12:42:41;11.13;;;9.60;;
11537;SDS011;50159;49.426;11.182;2023-03-01T12:45:51;16.53;;;10.83;;
11537;SDS011;50159;49.426;11.182;2023-03-01T12:51:39;16.80;;;10.43;;
11537;SDS011;50159;49.426;11.182;2023-03-01T12:54:16;14.40;;;10.67;;
11537;SDS011;50159;49.426;11.182;2023-03-01T12:56:54;15.70;;;10.20;;
11537;SDS011;50159;49.426;11.182;2023-03-01T12:59:31;11.60;;;9.50;;
11537;SDS011;50159;49.426;11.182;2023-03-01T13:02:14;14.30;;;10.43;;
11537;SDS011;50159;49.426;11.182;2023-03-01T13:13:21;11.93;;;10.07;;
11537;SDS011;50159;49.426;11.182;2023-03-01T13:15:50;12.20;;;9.87;;
11537;SDS011;50159;49.426;11.182;2023-03-01T13:20:50;13.47;;;10.23;;
11537;SDS011;50159;49.426;11.182;2023-03-01T13:34:00;13.60;;;10.47;;
11537;SDS011;50159;49.426;11.182;2023-03-01T13:39:04;13.33;;;11.17;;
11537;SDS011;50159;49.426;11.182;2023-03-01T13:41:54;16.60;;;10.43;;
11537;SDS011;50159;49.426;11.182;2023-03-01T13:46:50;14.30;;;10.17;;
11537;SDS011;50159;49.426;11.182;2023-03-01T13:49:36;14.73;;;9.67;;
11537;SDS011;50159;49.426;11.182;2023-03-01T13:55:17;17.40;;;10.97;;
11537;SDS011;50159;49.426;11.182;2023-03-01T13:57:59;14.87;;;9.97;;
11537;SDS011;50159;49.426;11.182;2023-03-01T14:00:31;13.20;;;10.00;;
11537;SDS011;50159;49.426;11.182;2023-03-01T14:05:41;15.17;;;9.60;;
11537;SDS011;50159;49.426;11.182;2023-03-01T14:08:39;11.63;;;9.37;;
11537;SDS011;50159;49.426;11.182;2023-03-01T14:11:20;12.70;;;9.40;;
11537;SDS011;50159;49.426;11.182;2023-03-01T14:14:32;14.43;;;9.27;;
11537;SDS011;50159;49.426;11.182;2023-03-01T14:20:20;13.87;;;9.57;;
11537;SDS011;50159;49.426;11.182;2023-03-01T14:22:52;10.43;;;7.87;;
11537;SDS011;50159;49.426;11.182;2023-03-01T14:25:33;9.70;;;8.00;;
11537;SDS011;50159;49.426;11.182;2023-03-01T14:28:16;10.73;;;9.00;;
11537;SDS011;50159;49.426;11.182;2023-03-01T14:30:56;8.93;;;7.53;;
11537;SDS011;50159;49.426;11.182;2023-03-01T14:33:33;10.00;;;7.70;;
11537;SDS011;50159;49.426;11.182;2023-03-01T14:36:11;10.47;;;8.20;;
11537;SDS011;50159;49.426;11.182;2023-03-01T14:38:43;8.40;;;7.47;;
11537;SDS011;50159;49.426;11.182;2023-03-01T14:41:19;9.50;;;7.87;;
11537;SDS011;50159;49.426;11.182;2023-03-01T14:44:06;10.97;;;7.40;;
11537;SDS011;50159;49.426;11.182;2023-03-01T14:46:41;9.63;;;8.23;;
11537;SDS011;50159;49.426;11.182;2023-03-01T14:49:17;8.33;;;7.53;;
11537;SDS011;50159;49.426;11.182;2023-03-01T14:54:35;9.00;;;7.77;;
11537;SDS011;50159;49.426;11.182;2023-03-01T14:57:12;8.07;;;7.27;;
11537;SDS011;50159;49.426;11.182;2023-03-01T14:59:48;8.70;;;6.73;;
11537;SDS011;50159;49.426;11.182;2023-03-01T15:02:22;10.17;;;7.40;;
11537;SDS011;50159;49.426;11.182;2023-03-01T15:04:54;10.50;;;8.17;;
11537;SDS011;50159;49.426;11.182;2023-03-01T15:07:29;9.30;;;8.00;;
11537;SDS011;50159;49.426;11.182;2023-03-01T15:10:01;10.80;;;8.40;;
11537;SDS011;50159;49.426;11.182;2023-03-01T15:14:57;8.80;;;7.90;;
11537;SDS011;50159;49.426;11.182;2023-03-01T15:17:31;10.77;;;8.03;;
11537;SDS011;50159;49.426;11.182;2023-03-01T15:20:03;9.80;;;7.93;;
11537;SDS011;50159;49.426;11.182;2023-03-01T15:22:42;8.50;;;7.63;;
11537;SDS011;50159;49.426;11.182;2023-03-01T15:25:15;8.30;;;7.50;;
11537;SDS011;50159;49.426;11.182;2023-03-01T15:27:46;11.30;;;8.43;;
11537;SDS011;50159;49.426;11.182;2023-03-01T15:33:15;9.93;;;8.63;;
11537;SDS011;50159;49.426;11.182;2023-03-01T15:35:46;9.90;;;8.27;;
11537;SDS011;50159;49.426;11.182;2023-03-01T15:38:28;15.40;;;10.23;;
11537;SDS011;50159;49.426;11.182;2023-03-01T15:44:00;14.93;;;11.13;;
11537;SDS011;50159;49.426;11.182;2023-03-01T15:46:45;17.83;;;11.97;;
11537;SDS011;50159;49.426;11.182;2023-03-01T15:52:19;13.73;;;10.03;;
11537;SDS011;50159;49.426;11.182;2023-03-01T15:55:03;11.50;;;9.63;;
11537;SDS011;50159;49.426;11.182;2023-03-01T15:57:57;13.93;;;11.40;;
11537;SDS011;50159;49.426;11.182;2023-03-01T16:00:32;13.93;;;9.60;;
11537;SDS011;50159;49.426;11.182;2023-03-01T16:02:59;13.80;;;11.20;;
11537;SDS011;50159;49.426;11.182;2023-03-01T16:05:27;15.27;;;10.13;;
11537;SDS011;50159;49.426;11.182;2023-03-01T16:07:58;12.27;;;9.83;;
11537;SDS011;50159;49.426;11.182;2023-03-01T16:10:27;13.20;;;10.10;;
11537;SDS011;50159;49.426;11.182;2023-03-01T16:12:54;14.37;;;10.80;;
11537;SDS011;50159;49.426;11.182;2023-03-01T16:15:25;12.40;;;9.67;;
11537;SDS011;50159;49.426;11.182;2023-03-01T16:18:00;13.57;;;10.03;;
11537;SDS011;50159;49.426;11.182;2023-03-01T16:20:28;15.20;;;10.60;;
11537;SDS011;50159;49.426;11.182;2023-03-01T16:23:02;14.33;;;10.40;;
11537;SDS011;50159;49.426;11.182;2023-03-01T16:25:34;13.37;;;10.27;;
11537;SDS011;50159;49.426;11.182;2023-03-01T16:28:02;12.27;;;10.77;;
11537;SDS011;50159;49.426;11.182;2023-03-01T16:30:34;18.97;;;11.97;;
11537;SDS011;50159;49.426;11.182;2023-03-01T16:33:02;18.00;;;10.77;;
11537;SDS011;50159;49.426;11.182;2023-03-01T16:35:49;13.37;;;10.13;;
11537;SDS011;50159;49.426;11.182;2023-03-01T16:38:16;17.60;;;11.47;;
11537;SDS011;50159;49.426;11.182;2023-03-01T16:40:46;16.17;;;11.13;;
11537;SDS011;50159;49.426;11.182;2023-03-01T16:43:16;13.47;;;9.70;;
11537;SDS011;50159;49.426;11.182;2023-03-01T16:45:44;17.37;;;10.73;;
11537;SDS011;50159;49.426;11.182;2023-03-01T16:48:11;15.33;;;11.20;;
11537;SDS011;50159;49.426;11.182;2023-03-01T16:50:38;15.00;;;10.77;;